Portada
METAR-TAF:

METAR-TAF

Aeroports :

Ambato, Equador

latitud: 01-12-43S, longitud: 078-34-28W, altitud: 2591 m

Observació

L'informe es va fer fa 41 minuts, a les 11:00 UTC
Vent calma
Temperatura 11°C
Humitat 94%
Pressió 1029 hPa
Visibilitat 10 km o més
Cel ennuvolat a una alçada de 2600 ft

METAR: SEAM 231100Z 00000KT 9999 BKN026 11/10 Q1029

Hora: 06:41 (11:41 UTC)


TAF: manca

Observacions i pronòstics meteorològics de més de 4000 aeroports (METAR i TAF).

Les estacions disponibles són els punts grocs i vermells al mapa.

Posi el ratolí al punt desitjat per veure el nom de l'estació.

Feu clic per veure les observacions i els pronòstics meteorològics.

Per canviar el mapa: feu clic els botons verds amb una creu de color negre per apropar; al botó verd amb un guió per allunyar la imatge; o en les fletxes verdes per a mapes adjacents.


METAR-TAF: